createdAt,value
2018-04-14T00:00:00.708Z,33.63
2018-04-14T00:02:27.644Z,35.77
2018-04-14T00:04:54.569Z,38.23
2018-04-14T00:07:21.490Z,33.67
2018-04-14T00:09:48.379Z,36.73
2018-04-14T00:12:15.300Z,37.57
2018-04-14T00:14:42.989Z,36.50
2018-04-14T00:17:09.886Z,36.27
2018-04-14T00:19:36.861Z,34.33
2018-04-14T00:22:04.540Z,32.53
2018-04-14T00:24:31.416Z,32.53
2018-04-14T00:26:58.656Z,33.43
2018-04-14T00:29:25.542Z,33.40
2018-04-14T00:31:52.441Z,30.77
2018-04-14T00:34:19.392Z,33.07
2018-04-14T00:36:46.264Z,29.43
2018-04-14T00:39:13.432Z,32.27
2018-04-14T00:41:40.329Z,32.63
2018-04-14T00:44:07.278Z,30.80
2018-04-14T00:46:34.335Z,33.23
2018-04-14T00:49:01.207Z,31.83
2018-04-14T00:51:28.067Z,32.97
2018-04-14T00:53:56.025Z,30.67
2018-04-14T00:56:22.992Z,31.20
2018-04-14T00:58:50.615Z,32.77
2018-04-14T01:01:17.581Z,31.43
2018-04-14T01:03:44.802Z,30.87
2018-04-14T01:06:11.715Z,29.63
2018-04-14T01:08:38.584Z,18.43
2018-04-14T01:11:05.522Z,32.60
2018-04-14T01:13:32.392Z,28.43
2018-04-14T01:15:59.457Z,31.57
2018-04-14T01:18:26.316Z,37.50
2018-04-14T01:20:53.189Z,34.00
2018-04-14T01:23:20.182Z,36.23
2018-04-14T01:25:47.102Z,33.63
2018-04-14T01:28:14.060Z,35.73
2018-04-14T01:30:41.260Z,30.10
2018-04-14T01:33:08.201Z,35.20
2018-04-14T01:35:35.177Z,35.07
2018-04-14T01:38:02.836Z,35.07
2018-04-14T01:40:30.498Z,36.53
2018-04-14T01:42:58.160Z,34.47
2018-04-14T01:45:25.941Z,31.57
2018-04-14T01:47:52.920Z,32.97
2018-04-14T01:50:19.800Z,33.80
2018-04-14T01:52:46.764Z,34.50
2018-04-14T01:55:14.443Z,31.67
2018-04-14T01:57:41.356Z,30.27
2018-04-14T02:00:08.992Z,29.03
2018-04-14T02:02:35.921Z,30.80
2018-04-14T02:05:02.944Z,30.87
2018-04-14T02:07:29.907Z,33.33
2018-04-14T02:09:56.847Z,30.97
2018-04-14T02:12:23.829Z,31.53
2018-04-14T02:14:51.495Z,32.50
2018-04-14T02:17:18.425Z,29.67
2018-04-14T02:19:45.367Z,33.53
2018-04-14T02:22:12.619Z,32.10
2018-04-14T02:24:39.505Z,31.80
2018-04-14T02:27:06.391Z,30.27
2018-04-14T02:29:33.298Z,31.80
2018-04-14T02:32:00.229Z,29.27
2018-04-14T02:34:27.566Z,29.90
2018-04-14T02:36:54.462Z,27.33
2018-04-14T02:39:22.069Z,27.50
2018-04-14T02:41:49.021Z,26.30
2018-04-14T02:44:16.077Z,26.93
2018-04-14T02:46:42.984Z,26.87
2018-04-14T02:49:09.859Z,27.50
2018-04-14T02:51:36.812Z,27.77
2018-04-14T02:54:03.767Z,25.73
2018-04-14T02:56:30.840Z,27.03
2018-04-14T02:58:57.724Z,27.73
2018-04-14T03:01:24.614Z,29.47
2018-04-14T03:03:51.526Z,27.13
2018-04-14T03:06:18.457Z,27.93
2018-04-14T03:08:45.426Z,27.63
2018-04-14T03:11:12.301Z,27.53
2018-04-14T03:13:39.292Z,26.87
2018-04-14T03:16:06.229Z,26.00
2018-04-14T03:18:34.184Z,26.97
2018-04-14T03:21:01.797Z,25.13
2018-04-14T03:23:29.460Z,24.80
2018-04-14T03:25:56.374Z,23.43
2018-04-14T03:28:23.257Z,24.00
2018-04-14T03:30:50.180Z,27.00
2018-04-14T03:33:17.064Z,26.27
2018-04-14T03:35:44.034Z,24.93
2018-04-14T03:38:11.945Z,24.10
2018-04-14T03:40:38.877Z,23.20
2018-04-14T03:43:05.772Z,22.20
2018-04-14T03:45:32.763Z,22.60
2018-04-14T03:47:59.649Z,20.63
2018-04-14T03:50:26.617Z,20.97
2018-04-14T03:52:53.676Z,21.10
2018-04-14T03:55:22.183Z,21.40
2018-04-14T03:57:49.077Z,20.37
2018-04-14T04:00:15.961Z,20.43
2018-04-14T04:02:43.728Z,18.03
2018-04-14T04:05:10.711Z,17.33
2018-04-14T04:07:37.626Z,16.67
2018-04-14T04:10:05.308Z,17.53
2018-04-14T04:12:32.215Z,15.13
2018-04-14T04:14:59.137Z,13.93
2018-04-14T04:17:26.213Z,13.80
2018-04-14T04:20:12.094Z,13.67
2018-04-14T04:22:57.144Z,13.07
2018-04-14T04:25:41.689Z,13.10
2018-04-14T04:28:08.864Z,13.87
2018-04-14T04:30:35.759Z,13.63
2018-04-14T04:33:03.421Z,15.63
2018-04-14T04:35:31.093Z,16.70
2018-04-14T04:37:57.976Z,17.07
2018-04-14T04:40:24.860Z,17.03
2018-04-14T04:42:51.771Z,18.33
2018-04-14T04:45:18.784Z,19.23
2018-04-14T04:47:45.740Z,19.73
2018-04-14T04:50:12.621Z,17.40
2018-04-14T04:52:39.540Z,19.80
2018-04-14T04:55:06.421Z,19.27
2018-04-14T04:57:33.319Z,18.97
2018-04-14T05:00:00.287Z,17.00
2018-04-14T05:02:27.258Z,15.40
2018-04-14T05:04:54.241Z,13.53
2018-04-14T05:07:21.161Z,13.70
2018-04-14T05:09:48.080Z,13.30
2018-04-14T05:12:15.817Z,13.07
2018-04-14T05:14:42.745Z,13.63
2018-04-14T05:17:09.665Z,13.40
2018-04-14T05:19:36.982Z,12.57
2018-04-14T05:22:03.886Z,13.23
2018-04-14T05:24:30.905Z,12.93
2018-04-14T05:26:57.795Z,15.13
2018-04-14T05:29:24.972Z,13.90
2018-04-14T05:31:51.929Z,15.03
2018-04-14T05:34:18.800Z,14.07
2018-04-14T05:36:45.884Z,12.37
2018-04-14T05:39:12.768Z,11.40
2018-04-14T05:41:39.687Z,9.97
2018-04-14T05:44:06.672Z,10.50
2018-04-14T05:46:33.600Z,11.90
2018-04-14T05:49:00.663Z,11.77
2018-04-14T05:51:27.634Z,13.43
2018-04-14T05:53:54.516Z,12.33
2018-04-14T05:56:21.443Z,12.63
2018-04-14T05:58:49.068Z,12.40
2018-04-14T06:01:16.000Z,13.90
2018-04-14T06:03:42.941Z,13.50
2018-04-14T06:06:09.912Z,14.17
2018-04-14T06:08:36.793Z,14.60
2018-04-14T06:11:03.702Z,14.60
2018-04-14T06:13:30.704Z,14.23
2018-04-14T06:15:57.639Z,14.07
2018-04-14T06:18:24.552Z,15.40
2018-04-14T06:20:51.593Z,15.30
2018-04-14T06:23:18.620Z,15.00
2018-04-14T06:25:45.507Z,14.00
2018-04-14T06:28:13.226Z,15.30
2018-04-14T06:30:40.093Z,16.77
2018-04-14T06:33:07.281Z,16.83
2018-04-14T06:35:34.892Z,16.37
2018-04-14T06:38:01.789Z,15.70
2018-04-14T06:40:29.753Z,18.87
2018-04-14T06:42:57.433Z,19.37
2018-04-14T06:45:24.400Z,18.10
2018-04-14T06:47:51.369Z,19.33
2018-04-14T06:50:18.378Z,19.03
2018-04-14T06:52:45.334Z,19.13
2018-04-14T06:55:12.300Z,19.17
2018-04-14T06:57:39.207Z,19.77
2018-04-14T07:00:06.864Z,17.30
2018-04-14T07:02:34.541Z,19.67
2018-04-14T07:05:01.506Z,21.30
2018-04-14T07:07:28.381Z,19.37
2018-04-14T07:09:55.441Z,20.87
2018-04-14T07:12:23.864Z,18.80
2018-04-14T07:14:56.981Z,17.33
2018-04-14T07:17:23.930Z,15.93
2018-04-14T07:19:51.282Z,15.77
2018-04-14T07:22:18.576Z,15.37
2018-04-14T07:24:46.221Z,14.23
2018-04-14T07:27:13.137Z,13.87
2018-04-14T07:29:40.009Z,14.07
2018-04-14T07:32:06.929Z,15.23
2018-04-14T07:34:33.857Z,17.47
2018-04-14T07:37:00.791Z,17.93
2018-04-14T07:39:28.465Z,16.70
2018-04-14T07:41:55.334Z,17.60
2018-04-14T07:44:22.304Z,18.27
2018-04-14T07:46:50.443Z,18.07
2018-04-14T07:49:18.250Z,19.60
2018-04-14T07:51:46.060Z,19.43
2018-04-14T07:54:12.987Z,17.27
2018-04-14T07:56:39.909Z,17.97
2018-04-14T07:59:06.805Z,16.90
2018-04-14T08:01:33.731Z,17.67
2018-04-14T08:04:00.882Z,17.27
2018-04-14T08:06:28.081Z,19.13
2018-04-14T08:08:55.156Z,17.67
2018-04-14T08:11:22.108Z,19.27
2018-04-14T08:13:49.028Z,17.20
2018-04-14T08:16:15.925Z,18.83
2018-04-14T08:18:42.853Z,18.77
2018-04-14T08:21:09.806Z,19.23
2018-04-14T08:23:36.734Z,18.03
2018-04-14T08:26:03.686Z,15.20
2018-04-14T08:28:30.579Z,16.40
2018-04-14T08:30:57.536Z,14.07
2018-04-14T08:33:24.471Z,17.07
2018-04-14T08:35:51.412Z,18.63
2018-04-14T08:38:18.304Z,17.70
2018-04-14T08:40:45.280Z,17.73
2018-04-14T08:43:12.961Z,16.57
2018-04-14T08:45:41.197Z,17.30
2018-04-14T08:48:08.118Z,17.93
2018-04-14T08:50:35.083Z,18.77
2018-04-14T08:53:02.806Z,17.57
2018-04-14T08:55:30.554Z,20.80
2018-04-14T08:57:58.416Z,18.00
2018-04-14T09:00:26.040Z,19.90
2018-04-14T09:02:52.913Z,19.17
2018-04-14T09:05:19.990Z,20.13
2018-04-14T09:07:47.610Z,19.90
2018-04-14T09:10:14.501Z,20.30
2018-04-14T09:12:41.435Z,21.47
2018-04-14T09:15:14.451Z,21.27
2018-04-14T09:17:41.391Z,21.63
2018-04-14T09:20:08.337Z,21.60
2018-04-14T09:22:35.266Z,20.70
2018-04-14T09:25:02.251Z,22.07
2018-04-14T09:27:29.153Z,21.93
2018-04-14T09:29:56.822Z,21.00
2018-04-14T09:32:24.457Z,22.00
2018-04-14T09:34:51.415Z,22.43
2018-04-14T09:37:19.054Z,21.70
2018-04-14T09:39:46.297Z,21.67
2018-04-14T09:42:13.214Z,22.33
2018-04-14T09:44:40.089Z,22.87
2018-04-14T09:47:07.039Z,20.83
2018-04-14T09:49:33.974Z,22.67
2018-04-14T09:52:00.984Z,23.83
2018-04-14T09:54:27.900Z,22.53
2018-04-14T09:56:54.844Z,21.83
2018-04-14T09:59:21.767Z,22.17
2018-04-14T10:01:50.655Z,21.80
2018-04-14T10:04:17.655Z,24.93
2018-04-14T10:06:45.286Z,23.97
2018-04-14T10:09:12.214Z,24.60
2018-04-14T10:11:39.083Z,24.23
2018-04-14T10:14:06.006Z,25.57
2018-04-14T10:16:33.168Z,24.60
2018-04-14T10:19:00.092Z,26.50
2018-04-14T10:21:26.974Z,25.90
2018-04-14T10:23:53.940Z,25.93
2018-04-14T10:26:21.558Z,28.43
2018-04-14T10:28:48.474Z,28.67
2018-04-14T10:31:15.396Z,29.93
2018-04-14T10:33:43.058Z,30.73
2018-04-14T10:36:10.683Z,27.90
2018-04-14T10:38:37.617Z,29.07
2018-04-14T10:41:04.548Z,28.40
2018-04-14T10:43:31.415Z,29.60
2018-04-14T10:45:58.353Z,33.20
2018-04-14T10:48:25.234Z,31.53
2018-04-14T10:50:52.208Z,31.90
2018-04-14T10:53:19.153Z,31.40
2018-04-14T10:55:46.181Z,30.67
2018-04-14T10:58:16.009Z,29.50
2018-04-14T11:00:42.948Z,31.07
2018-04-14T11:03:09.856Z,31.43
2018-04-14T11:05:36.837Z,33.07
2018-04-14T11:08:04.476Z,32.73
2018-04-14T11:10:31.402Z,30.57
2018-04-14T11:12:58.332Z,32.30
2018-04-14T11:15:25.266Z,30.17
2018-04-14T11:17:52.201Z,33.03
2018-04-14T11:20:19.949Z,31.53
2018-04-14T11:22:47.574Z,32.53
2018-04-14T11:25:14.575Z,33.60
2018-04-14T11:27:42.207Z,31.63
2018-04-14T11:30:09.146Z,33.70
2018-04-14T11:32:36.065Z,31.50
2018-04-14T11:35:03.023Z,30.17
2018-04-14T11:37:29.951Z,33.73
2018-04-14T11:39:56.891Z,32.30
2018-04-14T11:42:23.785Z,30.57
2018-04-14T11:44:50.745Z,31.83
2018-04-14T11:47:18.368Z,30.67
2018-04-14T11:49:45.348Z,31.60
2018-04-14T11:52:13.033Z,31.77
2018-04-14T11:54:40.998Z,31.77
2018-04-14T11:57:09.485Z,32.23
2018-04-14T11:59:37.199Z,31.97
2018-04-14T12:02:04.191Z,31.20
2018-04-14T12:04:31.862Z,30.43
2018-04-14T12:06:59.472Z,33.73
2018-04-14T12:09:26.542Z,31.23
2018-04-14T12:11:54.210Z,31.00
2018-04-14T12:14:21.108Z,32.03
2018-04-14T12:16:48.036Z,33.23
2018-04-14T12:19:16.052Z,31.43
2018-04-14T12:21:43.002Z,32.50
2018-04-14T12:24:09.911Z,34.10
2018-04-14T12:26:39.354Z,31.10
2018-04-14T12:29:06.282Z,33.73
2018-04-14T12:31:33.211Z,32.30
2018-04-14T12:34:00.188Z,31.97
2018-04-14T12:36:27.130Z,32.63
2018-04-14T12:38:54.045Z,34.10
2018-04-14T12:41:20.991Z,33.07
2018-04-14T12:43:47.876Z,33.87
2018-04-14T12:46:14.792Z,30.97
2018-04-14T12:48:41.657Z,30.50
2018-04-14T12:51:08.624Z,30.50
2018-04-14T12:53:35.496Z,33.50
2018-04-14T12:56:03.129Z,32.13
2018-04-14T12:58:30.086Z,30.10
2018-04-14T13:00:57.040Z,32.10
2018-04-14T13:03:23.982Z,33.23
2018-04-14T13:05:50.921Z,31.87
2018-04-14T13:08:17.799Z,31.63
2018-04-14T13:10:45.461Z,32.53
2018-04-14T13:13:13.090Z,31.83
2018-04-14T13:15:40.011Z,31.67
2018-04-14T13:18:06.925Z,28.10
2018-04-14T13:20:34.212Z,30.90
2018-04-14T13:23:01.075Z,29.83
2018-04-14T13:25:28.063Z,30.40
2018-04-14T13:27:55.785Z,28.90
2018-04-14T13:30:22.659Z,31.17
2018-04-14T13:32:51.261Z,31.37
2018-04-14T13:35:18.919Z,29.57
2018-04-14T13:37:46.529Z,30.63
2018-04-14T13:40:13.416Z,29.07
2018-04-14T13:42:40.335Z,29.30
2018-04-14T13:45:07.221Z,32.37
2018-04-14T13:47:34.933Z,31.77
2018-04-14T13:50:02.430Z,30.40
2018-04-14T13:52:30.136Z,30.70
2018-04-14T13:54:57.029Z,28.60
2018-04-14T13:57:23.968Z,28.73
2018-04-14T13:59:50.845Z,27.37
2018-04-14T14:02:20.405Z,25.57
2018-04-14T14:04:47.281Z,26.00
2018-04-14T14:07:14.285Z,27.27
2018-04-14T14:09:41.144Z,26.17
2018-04-14T14:12:08.220Z,26.07
2018-04-14T14:14:35.916Z,24.33
2018-04-14T14:17:02.936Z,24.43
2018-04-14T14:19:30.688Z,25.13
2018-04-14T14:21:57.580Z,26.07
2018-04-14T14:24:24.567Z,25.90
2018-04-14T14:26:51.453Z,25.97
2018-04-14T14:29:18.432Z,27.63
2018-04-14T14:31:45.305Z,27.77
2018-04-14T14:34:12.283Z,26.70
2018-04-14T14:36:39.900Z,28.63
2018-04-14T14:39:06.818Z,26.23
2018-04-14T14:41:33.689Z,28.13
2018-04-14T14:44:00.617Z,27.17
2018-04-14T14:46:27.598Z,28.23
2018-04-14T14:48:54.528Z,27.30
2018-04-14T14:51:21.492Z,27.80
2018-04-14T14:53:48.413Z,27.47
2018-04-14T14:56:15.730Z,29.13
2018-04-14T14:58:43.434Z,27.30
2018-04-14T15:01:10.732Z,26.53
2018-04-14T15:03:37.751Z,27.90
2018-04-14T15:06:06.443Z,27.67
2018-04-14T15:08:33.380Z,26.97
2018-04-14T15:11:00.265Z,28.33
2018-04-14T15:13:27.184Z,25.80
2018-04-14T15:15:54.145Z,27.33
2018-04-14T15:18:21.064Z,26.80
2018-04-14T15:20:48.024Z,28.43
2018-04-14T15:23:14.951Z,26.63
2018-04-14T15:25:42.012Z,25.90
2018-04-14T15:28:08.957Z,28.53
2018-04-14T15:30:35.873Z,27.77
2018-04-14T15:33:02.774Z,27.13
2018-04-14T15:35:29.692Z,27.30
2018-04-14T15:37:56.567Z,27.37
2018-04-14T15:40:23.484Z,33.63
2018-04-14T15:42:50.378Z,28.83
2018-04-14T15:45:19.395Z,28.13
2018-04-14T15:47:46.622Z,26.17
2018-04-14T15:50:14.589Z,26.50
2018-04-14T15:52:42.269Z,26.97
2018-04-14T15:55:09.271Z,26.47
2018-04-14T15:57:36.363Z,26.77
2018-04-14T16:00:04.931Z,27.40
2018-04-14T16:02:33.568Z,28.40
2018-04-14T16:05:00.494Z,25.07
2018-04-14T16:07:27.424Z,27.53
2018-04-14T16:09:54.360Z,26.67
2018-04-14T16:12:21.999Z,26.63
2018-04-14T16:14:53.798Z,27.67
2018-04-14T16:17:21.418Z,27.10
2018-04-14T16:19:48.334Z,26.30
2018-04-14T16:22:15.347Z,28.07
2018-04-14T16:24:43.034Z,27.00
2018-04-14T16:27:10.092Z,24.13
2018-04-14T16:29:36.978Z,25.90
2018-04-14T16:32:03.972Z,25.83
2018-04-14T16:34:30.865Z,27.47
2018-04-14T16:36:58.445Z,23.43
2018-04-14T16:39:25.475Z,24.77
2018-04-14T16:41:52.530Z,24.23
2018-04-14T16:44:20.129Z,25.73
2018-04-14T16:46:47.786Z,23.87
2018-04-14T16:49:15.443Z,24.30
2018-04-14T16:51:45.335Z,25.13
2018-04-14T16:54:12.215Z,24.50
2018-04-14T16:56:39.890Z,25.10
2018-04-14T16:59:06.823Z,23.97
2018-04-14T17:01:34.524Z,25.47
2018-04-14T17:04:01.569Z,23.97
2018-04-14T17:06:28.503Z,25.93
2018-04-14T17:08:55.436Z,24.97
2018-04-14T17:11:23.148Z,27.27
2018-04-14T17:13:50.018Z,24.00
2018-04-14T17:16:17.007Z,25.63
2018-04-14T17:18:43.876Z,25.53
2018-04-14T17:21:10.846Z,26.23
2018-04-14T17:23:37.826Z,24.70
2018-04-14T17:26:04.797Z,25.50
2018-04-14T17:28:32.325Z,25.43
2018-04-14T17:30:59.985Z,25.93
2018-04-14T17:33:27.201Z,26.37
2018-04-14T17:35:54.134Z,25.83
2018-04-14T17:38:21.063Z,26.03
2018-04-14T17:40:47.953Z,25.10
2018-04-14T17:43:14.857Z,26.13
2018-04-14T17:45:41.732Z,26.90
2018-04-14T17:48:09.380Z,24.37
2018-04-14T17:50:36.257Z,25.67
2018-04-14T17:53:03.230Z,26.00
2018-04-14T17:55:30.845Z,26.13
2018-04-14T17:57:57.755Z,26.57
2018-04-14T18:00:24.667Z,25.77
2018-04-14T18:02:51.626Z,28.50
2018-04-14T18:05:19.240Z,29.57
2018-04-14T18:07:46.175Z,30.00
2018-04-14T18:10:13.904Z,30.27
2018-04-14T18:12:41.683Z,28.97
2018-04-14T18:15:08.551Z,30.50
2018-04-14T18:17:35.565Z,29.20
2018-04-14T18:20:02.600Z,30.33
2018-04-14T18:22:29.564Z,32.07
2018-04-14T18:24:58.099Z,30.43
2018-04-14T18:27:24.976Z,30.53
2018-04-14T18:29:53.013Z,29.97
2018-04-14T18:32:19.877Z,30.20
2018-04-14T18:34:46.787Z,32.80
2018-04-14T18:37:13.753Z,32.33
2018-04-14T18:39:40.840Z,31.80
2018-04-14T18:42:07.766Z,32.97
2018-04-14T18:44:34.722Z,30.90
2018-04-14T18:47:01.652Z,32.13
2018-04-14T18:49:28.655Z,31.53
2018-04-14T18:51:55.734Z,32.10
2018-04-14T18:54:22.656Z,31.60
2018-04-14T18:56:49.580Z,31.70
2018-04-14T18:59:17.240Z,32.03
2018-04-14T19:01:44.144Z,30.40
2018-04-14T19:04:11.135Z,31.50
2018-04-14T19:06:38.759Z,32.70
2018-04-14T19:09:05.742Z,31.87
2018-04-14T19:11:33.440Z,30.70
2018-04-14T19:14:00.345Z,31.97
2018-04-14T19:16:27.960Z,32.00
2018-04-14T19:18:55.050Z,33.53
2018-04-14T19:21:22.021Z,33.70
2018-04-14T19:23:49.624Z,32.20
2018-04-14T19:26:16.700Z,32.13
2018-04-14T19:28:43.834Z,31.70
2018-04-14T19:31:10.723Z,32.27
2018-04-14T19:33:37.640Z,32.73
2018-04-14T19:36:05.991Z,33.07
2018-04-14T19:38:33.448Z,31.73
2018-04-14T19:41:00.420Z,33.03
2018-04-14T19:43:28.024Z,32.97
2018-04-14T19:45:54.936Z,34.73
2018-04-14T19:48:22.103Z,34.23
2018-04-14T19:50:49.858Z,32.37
2018-04-14T19:53:16.742Z,33.60
2018-04-14T19:55:43.750Z,31.63
2018-04-14T19:58:10.702Z,31.30
2018-04-14T20:00:37.698Z,32.53
2018-04-14T20:03:04.613Z,32.17
2018-04-14T20:05:32.292Z,34.70
2018-04-14T20:07:59.236Z,32.43
2018-04-14T20:10:26.185Z,31.67
2018-04-14T20:12:53.058Z,32.50
2018-04-14T20:15:20.026Z,32.63
2018-04-14T20:17:46.897Z,31.70
2018-04-14T20:20:14.557Z,33.57
2018-04-14T20:22:41.526Z,32.43
2018-04-14T20:25:08.635Z,30.37
2018-04-14T20:27:35.504Z,32.60
2018-04-14T20:30:03.198Z,30.73
2018-04-14T20:32:30.105Z,32.60
2018-04-14T20:34:57.278Z,34.87
2018-04-14T20:37:24.898Z,32.00
2018-04-14T20:39:51.819Z,32.10
2018-04-14T20:42:18.727Z,32.20
2018-04-14T20:44:46.587Z,33.00
2018-04-14T20:47:14.183Z,33.37
2018-04-14T20:49:41.056Z,35.00
2018-04-14T20:52:07.967Z,34.77
2018-04-14T20:54:34.869Z,36.17
2018-04-14T20:57:01.776Z,35.27
2018-04-14T20:59:29.029Z,33.63
2018-04-14T21:01:56.698Z,35.00
2018-04-14T21:04:23.627Z,34.13
2018-04-14T21:06:50.876Z,33.63
2018-04-14T21:09:17.805Z,33.33
2018-04-14T21:11:44.725Z,32.77
2018-04-14T21:14:11.605Z,33.23
2018-04-14T21:16:38.564Z,33.00
2018-04-14T21:19:05.454Z,34.60
2018-04-14T21:21:32.354Z,35.43
2018-04-14T21:23:59.303Z,33.70
2018-04-14T21:26:26.413Z,35.57
2018-04-14T21:28:53.343Z,34.37
2018-04-14T21:31:20.279Z,34.83
2018-04-14T21:33:47.216Z,35.27
2018-04-14T21:36:14.148Z,34.53
2018-04-14T21:38:41.068Z,32.80
2018-04-14T21:41:08.741Z,34.40
2018-04-14T21:43:35.607Z,32.70
2018-04-14T21:46:02.543Z,34.30
2018-04-14T21:48:29.518Z,33.50
2018-04-14T21:50:56.488Z,33.53
2018-04-14T21:53:23.513Z,33.37
2018-04-14T21:55:50.441Z,34.10
2018-04-14T21:58:17.306Z,33.37
2018-04-14T22:00:44.243Z,34.80
2018-04-14T22:03:11.107Z,32.43
2018-04-14T22:05:38.049Z,31.83
2018-04-14T22:08:04.945Z,33.53
2018-04-14T22:10:31.832Z,34.47
2018-04-14T22:12:58.745Z,36.57
2018-04-14T22:15:25.828Z,34.60
2018-04-14T22:17:53.595Z,34.77
2018-04-14T22:20:20.471Z,35.03
2018-04-14T22:22:48.321Z,36.13
2018-04-14T22:25:15.249Z,35.63
2018-04-14T22:27:42.111Z,35.10
2018-04-14T22:30:09.041Z,33.80
2018-04-14T22:32:35.973Z,35.53
2018-04-14T22:35:02.943Z,35.00
2018-04-14T22:37:29.845Z,35.43
2018-04-14T22:39:56.763Z,34.70
2018-04-14T22:42:24.661Z,35.53
2018-04-14T22:44:51.578Z,35.93
2018-04-14T22:47:19.184Z,36.93
2018-04-14T22:49:46.154Z,36.93
2018-04-14T22:52:13.021Z,36.87
2018-04-14T22:54:40.675Z,36.13
2018-04-14T22:57:07.544Z,35.77
2018-04-14T22:59:35.307Z,35.60
2018-04-14T23:02:02.940Z,35.83
2018-04-14T23:04:29.909Z,36.63
2018-04-14T23:06:57.569Z,38.30
2018-04-14T23:09:25.272Z,36.27
2018-04-14T23:11:52.243Z,37.07
2018-04-14T23:14:19.232Z,35.83
2018-04-14T23:16:46.854Z,37.80
2018-04-14T23:19:13.905Z,35.63
2018-04-14T23:21:40.777Z,36.20
2018-04-14T23:24:07.894Z,38.07
2018-04-14T23:26:35.652Z,37.80
2018-04-14T23:29:02.566Z,38.13
2018-04-14T23:31:30.175Z,36.33
2018-04-14T23:33:58.118Z,37.70
2018-04-14T23:36:24.988Z,39.60
2018-04-14T23:38:51.902Z,37.23
2018-04-14T23:41:18.829Z,36.00
2018-04-14T23:43:46.527Z,36.10
2018-04-14T23:46:13.396Z,34.80
2018-04-14T23:48:40.298Z,35.90
2018-04-14T23:51:07.185Z,37.30
2018-04-14T23:53:34.109Z,35.93
2018-04-14T23:56:01.076Z,36.00
2018-04-14T23:58:28.166Z,37.03
